Lillyville, Illinois
Current Conditions -  °F | °C
As of 3:35 PM on Friday 28 Nov 2014 (Local Time) from K1H2 Reporting Station
Clear Clear  
Wind Chill:   Ceiling: Unl
Heat Index:   Visibility: 10mi
Dew Point: -1°   Wind: 9mph
Humidity: 67%   Direction: 150°SSE
Pressure: 30.04"   Gusts: NA
Location:  39.1183°N, 88.6059°W
Report Text: K1H2 282135Z AUTO 15008KT 10SM CLR 05/M01 A3004 RMK AO2 T00451011
Loading
Personal Weather Stations






























Interactive Weather Map New forecast layout! Learn more

10-Day Weather Forecast

Advertisements
Track Severe Weather on mobile